createdAt,value
2024-05-09T00:00:00.475Z,110.72
2024-05-09T00:02:30.358Z,108.45
2024-05-09T00:05:02.990Z,109.28
2024-05-09T00:07:32.934Z,109.28
2024-05-09T00:10:04.131Z,110.30
2024-05-09T00:12:35.097Z,110.03
2024-05-09T00:15:04.812Z,110.95
2024-05-09T00:17:34.633Z,111.88
2024-05-09T00:20:14.340Z,111.38
2024-05-09T00:22:50.116Z,114.20
2024-05-09T00:25:19.932Z,113.43
2024-05-09T00:27:49.671Z,114.45
2024-05-09T00:30:27.941Z,115.13
2024-05-09T00:33:03.836Z,116.90
2024-05-09T00:35:36.991Z,116.13
2024-05-09T00:38:07.423Z,116.97
2024-05-09T00:40:41.665Z,115.55
2024-05-09T00:43:14.493Z,116.20
2024-05-09T00:45:45.258Z,116.18
2024-05-09T00:48:20.738Z,116.70
2024-05-09T00:50:55.702Z,119.03
2024-05-09T00:53:26.787Z,118.95
2024-05-09T00:55:58.889Z,118.47
2024-05-09T00:58:31.690Z,119.40
2024-05-09T01:01:03.046Z,120.95
2024-05-09T01:03:33.217Z,120.53
2024-05-09T01:06:05.874Z,119.47
2024-05-09T01:08:35.698Z,120.45
2024-05-09T01:11:05.545Z,119.53
2024-05-09T01:13:35.397Z,120.72
2024-05-09T01:16:05.755Z,119.90
2024-05-09T01:18:35.725Z,121.10
2024-05-09T01:21:09.941Z,122.25
2024-05-09T01:23:42.467Z,121.80
2024-05-09T01:26:12.234Z,125.00
2024-05-09T01:28:42.002Z,124.03
2024-05-09T01:31:15.760Z,125.63
2024-05-09T01:33:46.131Z,125.70
2024-05-09T01:36:16.044Z,125.28
2024-05-09T01:38:48.442Z,126.00
2024-05-09T01:41:18.273Z,125.88
2024-05-09T01:43:48.078Z,128.32
2024-05-09T01:46:19.395Z,127.45
2024-05-09T01:48:49.819Z,127.32
2024-05-09T01:51:19.772Z,126.68
2024-05-09T01:53:52.179Z,129.93
2024-05-09T01:56:21.941Z,130.07
2024-05-09T01:58:51.826Z,130.07
2024-05-09T02:01:21.659Z,129.82
2024-05-09T02:03:51.625Z,130.82
2024-05-09T02:06:21.505Z,130.75
2024-05-09T02:08:53.842Z,132.85
2024-05-09T02:11:23.649Z,132.00
2024-05-09T02:13:53.591Z,132.93
2024-05-09T02:16:23.308Z,133.55
2024-05-09T02:18:53.174Z,135.63
2024-05-09T02:21:22.915Z,135.88
2024-05-09T02:23:55.231Z,135.55
2024-05-09T02:26:25.001Z,136.43
2024-05-09T02:28:54.874Z,137.52
2024-05-09T02:31:24.632Z,138.55
2024-05-09T02:33:54.846Z,135.60
2024-05-09T02:36:25.165Z,137.10
2024-05-09T02:38:54.958Z,136.70
2024-05-09T02:41:24.711Z,139.43
2024-05-09T02:43:52.005Z,142.38
2024-05-09T02:46:21.709Z,145.25
2024-05-09T02:48:49.023Z,149.23
2024-05-09T02:51:18.833Z,152.38
2024-05-09T02:53:46.025Z,154.93
2024-05-09T02:56:18.433Z,161.70
2024-05-09T02:58:45.640Z,172.98
2024-05-09T03:01:15.510Z,171.00
2024-05-09T03:03:45.128Z,165.98
2024-05-09T03:06:15.042Z,164.07
2024-05-09T03:08:44.949Z,151.45
2024-05-09T03:11:26.393Z,148.60
2024-05-09T03:13:54.385Z,147.20
2024-05-09T03:16:24.132Z,147.35
2024-05-09T03:18:51.416Z,146.88
2024-05-09T03:21:21.205Z,147.10
2024-05-09T03:23:48.546Z,149.10
2024-05-09T03:26:21.219Z,148.18
2024-05-09T03:28:51.036Z,148.77
2024-05-09T03:31:21.442Z,146.70
2024-05-09T03:33:48.798Z,150.25
2024-05-09T03:36:18.698Z,148.88
2024-05-09T03:38:50.312Z,151.00
2024-05-09T03:41:22.548Z,151.60
2024-05-09T03:43:54.933Z,150.07
2024-05-09T03:46:24.715Z,151.07
2024-05-09T03:48:51.922Z,150.52
2024-05-09T03:51:21.689Z,152.15
2024-05-09T03:53:48.918Z,152.82
2024-05-09T03:56:19.304Z,154.55
2024-05-09T03:58:46.542Z,160.70
2024-05-09T04:01:18.945Z,178.55
2024-05-09T04:03:46.323Z,172.43
2024-05-09T04:06:23.087Z,175.02
2024-05-09T04:08:50.336Z,165.85
2024-05-09T04:11:20.952Z,166.00
2024-05-09T04:13:48.287Z,162.90
2024-05-09T04:16:20.740Z,155.10
2024-05-09T04:18:47.978Z,154.90
2024-05-09T04:21:17.844Z,153.43
2024-05-09T04:23:45.074Z,149.15
2024-05-09T04:26:14.885Z,147.23
2024-05-09T04:28:42.037Z,147.38
2024-05-09T04:31:11.832Z,147.93
2024-05-09T04:33:41.747Z,147.93
2024-05-09T04:36:11.623Z,146.98
2024-05-09T04:38:38.880Z,147.45
2024-05-09T04:41:08.759Z,147.40
2024-05-09T04:43:35.920Z,146.45
2024-05-09T04:46:05.696Z,144.77
2024-05-09T04:48:32.944Z,148.85
2024-05-09T04:51:06.005Z,145.40
2024-05-09T04:53:33.446Z,145.02
2024-05-09T04:56:03.297Z,145.00
2024-05-09T04:58:30.492Z,145.77
2024-05-09T05:01:00.261Z,145.93
2024-05-09T05:03:27.728Z,145.27
2024-05-09T05:05:57.746Z,146.40
2024-05-09T05:08:27.625Z,146.30
2024-05-09T05:10:57.546Z,145.75
2024-05-09T05:13:25.246Z,146.65
2024-05-09T05:15:57.498Z,145.43
2024-05-09T05:18:26.428Z,147.18
2024-05-09T05:20:57.582Z,145.82
2024-05-09T05:23:30.277Z,145.65
2024-05-09T05:25:57.520Z,146.05
2024-05-09T05:28:27.258Z,145.43
2024-05-09T05:30:54.421Z,145.65
2024-05-09T05:33:24.631Z,146.10
2024-05-09T05:35:51.898Z,144.82
2024-05-09T05:38:24.779Z,146.85
2024-05-09T05:40:57.105Z,145.52
2024-05-09T05:43:26.889Z,142.77
2024-05-09T05:45:56.608Z,142.95
2024-05-09T05:48:23.965Z,145.70
2024-05-09T05:50:53.795Z,144.57
2024-05-09T05:53:21.093Z,145.50
2024-05-09T05:55:50.990Z,144.80
2024-05-09T05:58:21.621Z,147.77
2024-05-09T06:00:53.136Z,146.57
2024-05-09T06:03:20.449Z,149.52
2024-05-09T06:05:50.268Z,144.00
2024-05-09T06:08:17.473Z,147.73
2024-05-09T06:10:47.690Z,147.88
2024-05-09T06:13:15.668Z,147.90
2024-05-09T06:15:48.119Z,146.88
2024-05-09T06:18:15.460Z,144.13
2024-05-09T06:20:45.632Z,145.55
2024-05-09T06:23:13.901Z,143.35
2024-05-09T06:25:44.207Z,137.63
2024-05-09T06:28:11.564Z,140.95
2024-05-09T06:30:42.730Z,141.50
2024-05-09T06:33:15.315Z,143.52
2024-05-09T06:35:46.533Z,144.73
2024-05-09T06:38:13.976Z,144.05
2024-05-09T06:40:44.763Z,143.88
2024-05-09T06:43:12.616Z,144.50
2024-05-09T06:45:42.431Z,147.50
2024-05-09T06:48:12.660Z,141.75
2024-05-09T06:50:43.638Z,142.25
2024-05-09T06:53:13.773Z,140.48
2024-05-09T06:55:43.522Z,141.30
2024-05-09T06:58:10.687Z,142.07
2024-05-09T07:00:42.002Z,142.00
2024-05-09T07:03:14.857Z,137.20
2024-05-09T07:05:48.183Z,141.13
2024-05-09T07:08:16.733Z,141.90
2024-05-09T07:10:47.011Z,141.88
2024-05-09T07:13:15.318Z,140.15
2024-05-09T07:15:45.768Z,140.77
2024-05-09T07:18:18.290Z,144.00
2024-05-09T07:20:50.462Z,142.50
2024-05-09T07:23:18.443Z,143.32
2024-05-09T07:25:48.766Z,137.98
2024-05-09T07:28:18.243Z,140.40
2024-05-09T07:30:48.342Z,139.25
2024-05-09T07:33:23.387Z,140.63
2024-05-09T07:35:54.382Z,144.13
2024-05-09T07:38:21.760Z,141.63
2024-05-09T07:40:51.812Z,143.98
2024-05-09T07:43:19.009Z,142.98
2024-05-09T07:45:53.583Z,141.13
2024-05-09T07:50:01.010Z,138.32
2024-05-09T07:53:49.679Z,139.32
2024-05-09T07:56:23.815Z,137.70
2024-05-09T07:58:52.523Z,139.43
2024-05-09T08:01:22.634Z,138.93
2024-05-09T08:03:53.279Z,136.93
2024-05-09T08:06:23.360Z,135.90
2024-05-09T08:08:50.552Z,136.38
2024-05-09T08:11:20.549Z,137.57
2024-05-09T08:13:47.739Z,136.43
2024-05-09T08:16:17.695Z,136.93
2024-05-09T08:18:44.969Z,137.35
2024-05-09T08:21:19.258Z,137.05
2024-05-09T08:23:46.444Z,138.73
2024-05-09T08:26:16.189Z,136.27
2024-05-09T08:28:43.302Z,137.38
2024-05-09T08:31:13.153Z,136.68
2024-05-09T08:33:44.606Z,134.40
2024-05-09T08:36:17.083Z,135.07
2024-05-09T08:38:44.219Z,135.95
2024-05-09T08:41:16.584Z,132.63
2024-05-09T08:43:45.113Z,137.70
2024-05-09T08:46:15.710Z,137.55
2024-05-09T08:48:45.685Z,132.23
2024-05-09T08:51:18.353Z,130.02
2024-05-09T08:53:45.722Z,130.50
2024-05-09T08:56:17.446Z,131.93
2024-05-09T08:58:45.415Z,134.18
2024-05-09T09:01:17.085Z,134.00
2024-05-09T09:03:45.896Z,133.68
2024-05-09T09:06:23.261Z,134.70
2024-05-09T09:08:51.095Z,133.43
2024-05-09T09:11:21.009Z,135.10
2024-05-09T09:13:48.485Z,137.10
2024-05-09T09:16:18.340Z,136.25
2024-05-09T09:18:46.284Z,135.20
2024-05-09T09:21:20.181Z,136.15
2024-05-09T09:23:47.321Z,134.80
2024-05-09T09:26:18.985Z,135.55
2024-05-09T09:28:46.962Z,133.60
2024-05-09T09:31:20.714Z,126.70
2024-05-09T09:33:48.248Z,124.63
2024-05-09T09:36:20.775Z,128.57
2024-05-09T09:38:48.055Z,129.50
2024-05-09T09:41:20.718Z,133.27
2024-05-09T09:43:48.491Z,132.77
2024-05-09T09:46:20.056Z,131.98
2024-05-09T09:48:48.070Z,133.70
2024-05-09T09:51:21.264Z,135.18
2024-05-09T09:53:50.597Z,133.95
2024-05-09T09:56:21.314Z,134.20
2024-05-09T09:58:48.848Z,136.10
2024-05-09T10:01:18.715Z,134.38
2024-05-09T10:03:46.192Z,134.80
2024-05-09T10:06:20.749Z,134.80
2024-05-09T10:08:48.899Z,134.85
2024-05-09T10:11:22.870Z,133.40
2024-05-09T10:13:51.584Z,134.07
2024-05-09T10:18:50.510Z,135.98
2024-05-09T10:21:23.610Z,136.65
2024-05-09T10:24:02.073Z,136.63
2024-05-09T10:26:35.909Z,139.57
2024-05-09T10:29:15.117Z,138.55
2024-05-09T10:31:44.108Z,137.18
2024-05-09T10:34:20.629Z,139.73
2024-05-09T10:36:54.612Z,139.23
2024-05-09T10:39:24.938Z,138.65
2024-05-09T10:41:52.056Z,139.20
2024-05-09T10:44:23.909Z,139.10
2024-05-09T10:46:53.742Z,140.38
2024-05-09T10:49:23.770Z,142.48
2024-05-09T10:51:53.768Z,143.55
2024-05-09T10:54:23.604Z,143.90
2024-05-09T10:56:56.740Z,141.05
2024-05-09T10:59:26.460Z,143.25
2024-05-09T11:01:53.785Z,143.13
2024-05-09T11:04:23.634Z,142.70
2024-05-09T11:06:53.767Z,140.85
2024-05-09T11:09:23.666Z,142.68
2024-05-09T11:11:51.214Z,142.68
2024-05-09T11:14:21.208Z,145.18
2024-05-09T11:16:59.091Z,147.68
2024-05-09T11:19:33.364Z,146.77
2024-05-09T11:22:03.563Z,147.18
2024-05-09T11:24:33.700Z,147.80
2024-05-09T11:27:02.384Z,147.98
2024-05-09T11:29:40.580Z,148.70
2024-05-09T11:32:08.640Z,149.88
2024-05-09T11:34:38.462Z,151.52
2024-05-09T11:37:08.620Z,152.73
2024-05-09T11:39:38.567Z,154.32
2024-05-09T11:42:06.253Z,158.68
2024-05-09T11:44:36.123Z,159.25
2024-05-09T11:47:04.630Z,151.07
2024-05-09T11:49:34.722Z,153.25
2024-05-09T11:52:01.928Z,163.05
2024-05-09T11:54:34.425Z,156.82
2024-05-09T11:57:01.648Z,159.68
2024-05-09T11:59:31.402Z,167.07
2024-05-09T12:01:58.692Z,186.02
2024-05-09T12:04:28.671Z,186.55
2024-05-09T12:06:56.088Z,169.70
2024-05-09T12:09:26.487Z,166.02
2024-05-09T12:11:56.309Z,177.00
2024-05-09T12:14:26.142Z,185.73
2024-05-09T12:16:53.356Z,178.25
2024-05-09T12:19:23.337Z,173.88
2024-05-09T12:21:50.628Z,167.80
2024-05-09T12:24:20.412Z,169.55
2024-05-09T12:26:47.756Z,167.68
2024-05-09T12:29:20.543Z,169.77
2024-05-09T12:31:47.744Z,175.60
2024-05-09T12:34:18.361Z,194.45
2024-05-09T12:36:45.595Z,181.82
2024-05-09T12:39:15.501Z,176.93
2024-05-09T12:41:42.603Z,183.38
2024-05-09T12:44:12.392Z,173.23
2024-05-09T12:46:42.159Z,167.95
2024-05-09T12:49:13.750Z,167.00
2024-05-09T12:51:42.045Z,167.52
2024-05-09T12:54:11.821Z,160.45
2024-05-09T12:56:39.019Z,166.10
2024-05-09T12:59:08.744Z,166.65
2024-05-09T13:01:36.012Z,169.50
2024-05-09T13:04:09.016Z,167.35
2024-05-09T13:06:36.297Z,158.88
2024-05-09T13:09:07.251Z,156.80
2024-05-09T13:11:34.463Z,157.57
2024-05-09T13:14:04.187Z,157.55
2024-05-09T13:16:31.509Z,157.95
2024-05-09T13:19:01.315Z,158.07
2024-05-09T13:21:31.172Z,162.52
2024-05-09T13:24:00.996Z,163.90
2024-05-09T13:26:28.175Z,165.07
2024-05-09T13:28:57.896Z,172.95
2024-05-09T13:31:25.228Z,177.02
2024-05-09T13:33:55.262Z,187.55
2024-05-09T13:36:22.563Z,196.02
2024-05-09T13:38:54.974Z,112.57
2024-05-09T13:41:22.089Z,107.50
2024-05-09T13:43:53.626Z,106.20
2024-05-09T13:46:21.325Z,105.93
2024-05-09T13:48:51.376Z,102.65
2024-05-09T13:51:18.753Z,99.55
2024-05-09T13:53:48.594Z,96.00
2024-05-09T13:56:18.341Z,93.90
2024-05-09T13:58:50.571Z,91.13
2024-05-09T14:01:18.152Z,90.90
2024-05-09T14:03:48.183Z,88.10
2024-05-09T14:06:15.477Z,89.32
2024-05-09T14:08:45.291Z,82.60
2024-05-09T14:11:12.478Z,81.95
2024-05-09T14:13:44.904Z,81.50
2024-05-09T14:16:12.231Z,82.38
2024-05-09T14:18:42.080Z,79.85
2024-05-09T14:21:09.320Z,81.20
2024-05-09T14:23:39.039Z,78.72
2024-05-09T14:26:06.255Z,80.22
2024-05-09T14:28:36.095Z,80.35
2024-05-09T14:31:05.993Z,80.18
2024-05-09T14:33:35.918Z,80.30
2024-05-09T14:36:03.316Z,81.30
2024-05-09T14:38:33.172Z,78.22
2024-05-09T14:41:00.301Z,79.53
2024-05-09T14:43:30.313Z,78.63
2024-05-09T14:45:57.603Z,80.97
2024-05-09T14:48:30.306Z,79.47
2024-05-09T14:50:57.499Z,80.95
2024-05-09T14:53:28.343Z,81.32
2024-05-09T14:55:55.720Z,80.43
2024-05-09T14:58:26.390Z,79.95
2024-05-09T15:00:53.686Z,80.45
2024-05-09T15:03:23.664Z,81.55
2024-05-09T15:05:53.828Z,82.50
2024-05-09T15:08:23.810Z,83.38
2024-05-09T15:10:51.234Z,83.72
2024-05-09T15:13:21.621Z,85.13
2024-05-09T15:15:49.313Z,84.47
2024-05-09T15:18:19.431Z,85.05
2024-05-09T15:20:47.066Z,87.97
2024-05-09T15:23:19.505Z,82.78
2024-05-09T15:25:46.783Z,84.88
2024-05-09T15:28:16.866Z,84.22
2024-05-09T15:30:46.513Z,84.38
2024-05-09T15:33:17.034Z,86.13
2024-05-09T15:35:46.507Z,86.18
2024-05-09T15:38:19.865Z,85.53
2024-05-09T15:40:47.266Z,86.07
2024-05-09T15:43:17.272Z,85.38
2024-05-09T15:45:44.954Z,86.75
2024-05-09T15:48:14.871Z,86.30
2024-05-09T15:50:42.988Z,85.50
2024-05-09T15:53:14.307Z,85.63
2024-05-09T15:55:44.160Z,85.28
2024-05-09T15:58:14.355Z,89.63
2024-05-09T16:00:44.232Z,87.45
2024-05-09T16:03:16.134Z,88.40
2024-05-09T16:05:44.506Z,87.07
2024-05-09T16:08:15.572Z,88.15
2024-05-09T16:10:47.291Z,90.38
2024-05-09T16:13:19.623Z,88.30
2024-05-09T16:15:47.238Z,87.82
2024-05-09T16:18:17.629Z,88.03
2024-05-09T16:20:47.265Z,86.85
2024-05-09T16:23:19.099Z,88.90
2024-05-09T16:25:48.949Z,89.60
2024-05-09T16:28:22.723Z,89.00
2024-05-09T16:30:50.744Z,89.57
2024-05-09T16:33:23.596Z,89.63
2024-05-09T16:35:50.936Z,90.80
2024-05-09T16:38:20.852Z,90.00
2024-05-09T16:40:50.953Z,89.75
2024-05-09T16:43:21.166Z,90.03
2024-05-09T16:45:48.488Z,89.60
2024-05-09T16:48:18.620Z,89.68
2024-05-09T16:50:45.856Z,91.22
2024-05-09T16:53:16.284Z,91.43
2024-05-09T16:55:43.486Z,91.00
2024-05-09T16:58:16.423Z,86.85
2024-05-09T17:00:44.482Z,92.45
2024-05-09T17:03:16.356Z,91.47
2024-05-09T17:05:45.973Z,91.88
2024-05-09T17:08:18.468Z,92.18
2024-05-09T17:10:46.253Z,93.20
2024-05-09T17:13:19.539Z,90.63
2024-05-09T17:15:50.230Z,91.85
2024-05-09T17:18:20.450Z,93.03
2024-05-09T17:20:49.108Z,92.63
2024-05-09T17:25:45.903Z,99.00
2024-05-09T17:28:18.501Z,96.78
2024-05-09T17:30:45.873Z,95.00
2024-05-09T17:33:15.959Z,95.35
2024-05-09T17:35:45.633Z,95.20
2024-05-09T17:38:15.717Z,93.60
2024-05-09T17:40:42.982Z,95.90
2024-05-09T17:43:12.924Z,93.43
2024-05-09T17:45:42.807Z,93.53
2024-05-09T17:48:13.932Z,94.80
2024-05-09T17:50:42.112Z,93.55
2024-05-09T17:53:12.169Z,94.88
2024-05-09T17:55:39.741Z,95.28
2024-05-09T17:58:10.230Z,95.00
2024-05-09T18:00:40.649Z,96.05
2024-05-09T18:03:14.963Z,95.97
2024-05-09T18:05:43.307Z,95.22
2024-05-09T18:08:14.286Z,98.65
2024-05-09T18:10:41.979Z,97.07
2024-05-09T18:13:12.557Z,95.65
2024-05-09T18:15:40.402Z,94.85
2024-05-09T18:18:11.087Z,98.13
2024-05-09T18:20:44.706Z,97.13
2024-05-09T18:23:18.057Z,99.75
2024-05-09T18:25:46.737Z,97.22
2024-05-09T18:28:17.682Z,97.15
2024-05-09T18:30:45.233Z,97.57
2024-05-09T18:33:15.502Z,98.72
2024-05-09T18:35:45.743Z,99.50
2024-05-09T18:38:15.591Z,100.07
2024-05-09T18:40:44.719Z,100.53
2024-05-09T18:43:17.202Z,100.18
2024-05-09T18:45:45.064Z,101.20
2024-05-09T18:48:15.697Z,101.07
2024-05-09T18:50:45.631Z,102.47
2024-05-09T18:53:16.334Z,101.50
2024-05-09T18:55:43.581Z,102.47
2024-05-09T18:58:13.671Z,99.97
2024-05-09T19:00:44.012Z,101.10
2024-05-09T19:03:16.033Z,102.97
2024-05-09T19:05:46.669Z,101.00
2024-05-09T19:08:17.095Z,100.70
2024-05-09T19:10:45.797Z,100.68
2024-05-09T19:13:16.485Z,103.72
2024-05-09T19:15:44.502Z,102.95
2024-05-09T19:18:15.802Z,103.40
2024-05-09T19:20:51.329Z,101.78
2024-05-09T19:23:21.139Z,102.53
2024-05-09T19:25:48.414Z,103.75
2024-05-09T19:28:18.254Z,99.28
2024-05-09T19:30:45.583Z,99.65
2024-05-09T19:33:15.458Z,99.18
2024-05-09T19:40:42.272Z,107.88
2024-05-09T19:48:10.025Z,107.78
2024-05-09T19:50:42.818Z,11.88
2024-05-09T19:53:17.547Z,11.95
2024-05-09T19:55:44.725Z,55.40
2024-05-09T19:58:14.685Z,82.05
2024-05-09T20:00:43.729Z,89.82
2024-05-09T20:03:16.001Z,94.68
2024-05-09T20:05:45.356Z,99.88
2024-05-09T20:08:18.671Z,101.65
2024-05-09T20:10:45.817Z,105.40
2024-05-09T20:13:16.630Z,103.85
2024-05-09T20:15:43.925Z,103.82
2024-05-09T20:18:14.243Z,103.60
2024-05-09T20:20:43.746Z,108.50
2024-05-09T20:23:17.789Z,104.00
2024-05-09T20:25:44.930Z,102.20
2024-05-09T20:28:14.723Z,103.65
2024-05-09T20:30:42.176Z,101.13
2024-05-09T20:33:12.642Z,101.28
2024-05-09T20:35:40.080Z,101.43
2024-05-09T20:38:09.965Z,103.35
2024-05-09T20:40:40.194Z,102.53
2024-05-09T20:43:10.933Z,102.50
2024-05-09T20:45:39.030Z,101.20
2024-05-09T20:48:11.398Z,102.88
2024-05-09T20:50:41.551Z,102.57
2024-05-09T20:53:14.475Z,102.95
2024-05-09T20:55:47.633Z,14.57
2024-05-09T20:58:14.854Z,79.63
2024-05-09T21:00:46.041Z,93.95
2024-05-09T21:03:15.573Z,97.85
2024-05-09T21:05:47.391Z,101.53
2024-05-09T21:08:15.320Z,104.27
2024-05-09T21:10:47.974Z,103.30
2024-05-09T21:13:15.461Z,104.70
2024-05-09T21:15:45.365Z,105.78
2024-05-09T21:18:13.122Z,106.57
2024-05-09T21:20:42.991Z,107.88
2024-05-09T21:23:10.155Z,109.60
2024-05-09T21:25:40.007Z,107.70
2024-05-09T21:28:09.984Z,108.45
2024-05-09T21:30:42.534Z,110.00
2024-05-09T21:33:12.556Z,109.03
2024-05-09T21:35:44.915Z,111.35
2024-05-09T21:38:14.114Z,111.85
2024-05-09T21:40:45.117Z,113.65
2024-05-09T21:43:15.404Z,112.05
2024-05-09T21:45:45.723Z,111.65
2024-05-09T21:48:13.417Z,111.65
2024-05-09T21:50:43.384Z,111.07
2024-05-09T21:53:11.232Z,114.55
2024-05-09T21:55:41.242Z,112.00
2024-05-09T21:58:08.698Z,112.18
2024-05-09T22:00:42.770Z,112.82
2024-05-09T22:03:12.930Z,113.22
2024-05-09T22:05:43.391Z,114.13
2024-05-09T22:08:13.363Z,113.03
2024-05-09T22:10:40.948Z,115.15
2024-05-09T22:13:11.023Z,20.45
2024-05-09T22:15:41.230Z,96.72
2024-05-09T22:18:12.158Z,105.47
2024-05-09T22:20:44.886Z,110.80
2024-05-09T22:23:16.339Z,113.70
2024-05-09T22:25:43.577Z,114.75
2024-05-09T22:28:15.744Z,114.82
2024-05-09T22:30:47.046Z,114.50
2024-05-09T22:33:17.729Z,115.55
2024-05-09T22:35:45.330Z,117.07
2024-05-09T22:38:15.350Z,116.88
2024-05-09T22:40:47.912Z,118.13
2024-05-09T22:43:23.647Z,117.03
2024-05-09T22:45:55.322Z,119.10
2024-05-09T22:48:26.308Z,119.63
2024-05-09T22:50:54.295Z,119.10
2024-05-09T22:53:24.678Z,118.60
2024-05-09T22:55:51.984Z,119.03
2024-05-09T22:58:22.196Z,119.65
2024-05-09T23:00:49.751Z,120.90
2024-05-09T23:03:22.997Z,125.82
2024-05-09T23:05:50.472Z,120.97
2024-05-09T23:08:20.311Z,123.55
2024-05-09T23:10:47.783Z,124.00
2024-05-09T23:13:17.751Z,124.32
2024-05-09T23:15:44.923Z,124.00
2024-05-09T23:18:14.776Z,126.68
2024-05-09T23:20:44.575Z,125.35
2024-05-09T23:23:14.296Z,125.88
2024-05-09T23:25:41.933Z,127.93
2024-05-09T23:28:12.217Z,128.07
2024-05-09T23:30:41.072Z,129.35
2024-05-09T23:33:13.632Z,129.55
2024-05-09T23:35:44.969Z,133.02
2024-05-09T23:38:15.093Z,137.02
2024-05-09T23:40:43.137Z,137.50
2024-05-09T23:43:13.875Z,141.60
2024-05-09T23:45:41.947Z,148.43
2024-05-09T23:48:12.716Z,149.18
2024-05-09T23:50:40.846Z,145.38
2024-05-09T23:53:14.217Z,144.98
2024-05-09T23:55:41.493Z,154.57
2024-05-09T23:58:11.610Z,145.65
